createdAt,value
2019-03-23T00:01:06.022Z,87.90
2019-03-23T00:03:41.878Z,87.22
2019-03-23T00:06:17.766Z,92.67
2019-03-23T00:08:53.618Z,91.97
2019-03-23T00:11:29.657Z,102.07
2019-03-23T00:14:05.493Z,108.47
2019-03-23T00:16:41.358Z,103.67
2019-03-23T00:19:17.209Z,107.70
2019-03-23T00:21:53.060Z,105.27
2019-03-23T00:24:30.637Z,104.58
2019-03-23T00:27:06.883Z,102.75
2019-03-23T00:29:42.872Z,105.17
2019-03-23T00:32:18.897Z,104.30
2019-03-23T00:34:54.799Z,110.32
2019-03-23T00:37:30.637Z,102.97
2019-03-23T00:40:08.851Z,110.17
2019-03-23T00:42:44.709Z,110.30
2019-03-23T00:45:20.674Z,114.03
2019-03-23T00:47:56.521Z,115.32
2019-03-23T00:50:32.379Z,113.62
2019-03-23T00:53:08.233Z,117.30
2019-03-23T00:55:44.088Z,119.22
2019-03-23T00:58:19.932Z,117.25
2019-03-23T01:00:55.786Z,111.83
2019-03-23T01:03:31.643Z,118.90
2019-03-23T01:06:07.548Z,123.45
2019-03-23T01:08:43.351Z,120.13
2019-03-23T01:11:19.401Z,121.67
2019-03-23T01:13:56.140Z,131.63
2019-03-23T01:16:31.909Z,125.38
2019-03-23T01:19:07.794Z,134.20
2019-03-23T01:21:43.637Z,126.35
2019-03-23T01:24:19.441Z,124.25
2019-03-23T01:26:55.267Z,135.18
2019-03-23T01:29:31.105Z,132.25
2019-03-23T01:32:06.953Z,132.32
2019-03-23T01:34:43.114Z,132.78
2019-03-23T01:37:18.863Z,129.03
2019-03-23T01:39:54.937Z,125.25
2019-03-23T01:42:30.698Z,133.87
2019-03-23T01:45:09.304Z,129.93
2019-03-23T01:47:45.658Z,121.10
2019-03-23T01:50:21.521Z,126.27
2019-03-23T01:52:57.379Z,123.55
2019-03-23T01:55:33.246Z,123.45
2019-03-23T01:58:09.069Z,122.15
2019-03-23T02:00:44.925Z,133.20
2019-03-23T02:03:21.155Z,121.55
2019-03-23T02:05:57.044Z,124.87
2019-03-23T02:08:33.146Z,124.90
2019-03-23T02:11:09.432Z,128.45
2019-03-23T02:13:45.338Z,126.42
2019-03-23T02:16:21.279Z,125.60
2019-03-23T02:18:57.237Z,131.45
2019-03-23T02:21:33.096Z,128.87
2019-03-23T02:24:08.946Z,136.10
2019-03-23T02:26:44.796Z,134.78
2019-03-23T02:29:20.655Z,131.18
2019-03-23T02:31:56.517Z,126.38
2019-03-23T02:34:32.366Z,130.72
2019-03-23T02:37:08.132Z,126.15
2019-03-23T02:39:43.963Z,131.55
2019-03-23T02:42:19.820Z,129.87
2019-03-23T02:44:55.679Z,133.18
2019-03-23T02:47:31.543Z,130.80
2019-03-23T02:50:09.686Z,133.87
2019-03-23T02:52:45.521Z,126.78
2019-03-23T02:55:21.281Z,135.32
2019-03-23T02:57:57.210Z,140.92
2019-03-23T03:00:33.057Z,135.75
2019-03-23T03:03:08.916Z,144.70
2019-03-23T03:05:45.682Z,137.62
2019-03-23T03:08:21.805Z,141.03
2019-03-23T03:10:57.905Z,143.28
2019-03-23T03:13:33.708Z,154.57
2019-03-23T03:16:09.625Z,156.97
2019-03-23T03:18:45.480Z,169.13
2019-03-23T03:21:21.316Z,170.77
2019-03-23T03:23:57.493Z,182.80
2019-03-23T03:26:33.757Z,183.32
2019-03-23T03:29:09.593Z,187.88
2019-03-23T03:31:45.465Z,186.55
2019-03-23T03:34:21.317Z,182.30
2019-03-23T03:36:57.114Z,186.80
2019-03-23T03:39:32.911Z,178.72
2019-03-23T03:42:08.776Z,175.97
2019-03-23T03:44:44.623Z,172.72
2019-03-23T03:47:20.468Z,175.40
2019-03-23T03:49:56.365Z,162.70
2019-03-23T03:52:32.281Z,174.93
2019-03-23T03:55:09.683Z,177.25
2019-03-23T03:57:45.457Z,167.53
2019-03-23T04:00:22.094Z,169.23
2019-03-23T04:02:57.969Z,169.00
2019-03-23T04:05:34.016Z,174.55
2019-03-23T04:08:11.835Z,174.72
2019-03-23T04:10:47.466Z,164.43
2019-03-23T04:13:23.326Z,161.77
2019-03-23T04:15:59.164Z,163.65
2019-03-23T04:18:35.166Z,162.97
2019-03-23T04:21:11.080Z,160.72
2019-03-23T04:23:46.929Z,164.37
2019-03-23T04:26:22.787Z,161.18
2019-03-23T04:28:58.642Z,158.68
2019-03-23T04:31:34.515Z,165.82
2019-03-23T04:34:11.052Z,174.60
2019-03-23T04:36:46.923Z,173.70
2019-03-23T04:39:22.773Z,166.18
2019-03-23T04:41:58.629Z,174.55
2019-03-23T04:44:34.476Z,181.45
2019-03-23T04:47:10.542Z,173.30
2019-03-23T04:49:46.399Z,186.43
2019-03-23T04:52:22.254Z,181.20
2019-03-23T04:54:58.113Z,168.30
2019-03-23T04:57:33.967Z,164.65
2019-03-23T05:00:12.689Z,167.00
2019-03-23T05:02:49.563Z,164.07
2019-03-23T05:05:27.053Z,163.97
2019-03-23T05:08:03.727Z,168.40
2019-03-23T05:10:39.572Z,158.82
2019-03-23T05:13:16.179Z,159.50
2019-03-23T05:15:52.026Z,171.45
2019-03-23T05:18:27.864Z,182.60
2019-03-23T05:21:03.717Z,182.45
2019-03-23T05:23:40.579Z,203.47
2019-03-23T05:26:16.451Z,199.32
2019-03-23T05:28:52.287Z,192.13
2019-03-23T05:31:28.821Z,185.52
2019-03-23T05:34:04.616Z,176.40
2019-03-23T05:36:40.417Z,174.12
2019-03-23T05:39:17.557Z,169.85
2019-03-23T05:41:53.413Z,165.55
2019-03-23T05:44:29.264Z,169.80
2019-03-23T05:47:05.214Z,160.85
2019-03-23T05:49:41.588Z,166.55
2019-03-23T05:52:17.436Z,164.13
2019-03-23T05:54:53.494Z,167.60
2019-03-23T05:57:29.344Z,165.70
2019-03-23T06:00:07.652Z,154.40
2019-03-23T06:02:43.519Z,161.90
2019-03-23T06:05:19.263Z,163.12
2019-03-23T06:08:05.049Z,159.63
2019-03-23T06:10:40.914Z,157.67
2019-03-23T06:13:16.761Z,164.45
2019-03-23T06:15:52.613Z,170.70
2019-03-23T06:18:29.044Z,166.73
2019-03-23T06:21:04.944Z,165.43
2019-03-23T06:23:42.020Z,168.22
2019-03-23T06:26:17.879Z,159.97
2019-03-23T06:28:54.003Z,171.85
2019-03-23T06:31:29.792Z,169.10
2019-03-23T06:34:05.640Z,172.55
2019-03-23T06:36:41.493Z,162.07
2019-03-23T06:39:18.317Z,163.12
2019-03-23T06:41:54.152Z,169.35
2019-03-23T06:44:29.972Z,161.90
2019-03-23T06:47:05.837Z,173.62
2019-03-23T06:49:41.699Z,177.00
2019-03-23T06:52:17.648Z,175.75
2019-03-23T06:54:53.709Z,153.62
2019-03-23T06:57:29.814Z,163.92
2019-03-23T07:00:11.468Z,164.32
2019-03-23T07:02:47.649Z,152.12
2019-03-23T07:05:23.602Z,162.30
2019-03-23T07:07:59.525Z,160.43
2019-03-23T07:10:35.491Z,159.43
2019-03-23T07:13:11.271Z,162.68
2019-03-23T07:15:47.094Z,160.40
2019-03-23T07:18:22.936Z,166.50
2019-03-23T07:20:58.742Z,153.97
2019-03-23T07:23:34.760Z,155.03
2019-03-23T07:26:11.180Z,151.53
2019-03-23T07:28:47.053Z,154.32
2019-03-23T07:31:22.815Z,156.37
2019-03-23T07:33:58.628Z,156.20
2019-03-23T07:36:34.664Z,150.95
2019-03-23T07:39:10.487Z,156.52
2019-03-23T07:41:46.267Z,152.32
2019-03-23T07:44:22.103Z,145.43
2019-03-23T07:46:57.890Z,159.93
2019-03-23T07:49:34.051Z,156.30
2019-03-23T07:52:10.259Z,155.57
2019-03-23T07:54:46.107Z,158.22
2019-03-23T07:57:21.889Z,158.25
2019-03-23T07:59:58.749Z,151.50
2019-03-23T08:02:34.726Z,151.95
2019-03-23T08:05:10.549Z,149.80
2019-03-23T08:07:46.430Z,155.20
2019-03-23T08:10:32.708Z,155.00
2019-03-23T08:13:08.923Z,160.37
2019-03-23T08:15:44.715Z,155.57
2019-03-23T08:18:20.586Z,164.55
2019-03-23T08:20:56.688Z,161.73
2019-03-23T08:23:32.478Z,149.75
2019-03-23T08:26:08.341Z,142.90
2019-03-23T08:28:44.314Z,154.07
2019-03-23T08:31:20.222Z,155.32
2019-03-23T08:33:56.173Z,146.85
2019-03-23T08:36:31.974Z,134.93
2019-03-23T08:39:08.236Z,143.57
2019-03-23T08:41:45.522Z,147.95
2019-03-23T08:44:21.488Z,148.05
2019-03-23T08:46:57.345Z,152.12
2019-03-23T08:49:33.106Z,141.18
2019-03-23T08:52:08.943Z,147.93
2019-03-23T08:54:44.908Z,143.30
2019-03-23T08:57:20.748Z,148.87
2019-03-23T08:59:56.910Z,136.40
2019-03-23T09:02:32.741Z,134.60
2019-03-23T09:05:08.626Z,135.85
2019-03-23T09:07:44.770Z,135.43
2019-03-23T09:10:20.621Z,131.32
2019-03-23T09:12:56.368Z,134.72
2019-03-23T09:15:32.247Z,141.35
2019-03-23T09:18:08.677Z,139.75
2019-03-23T09:20:44.560Z,140.45
2019-03-23T09:23:20.417Z,139.05
2019-03-23T09:25:56.266Z,165.92
2019-03-23T09:28:32.131Z,156.55
2019-03-23T09:31:07.998Z,156.80
2019-03-23T09:33:43.838Z,159.50
2019-03-23T09:36:22.978Z,163.47
2019-03-23T09:38:57.291Z,177.15
2019-03-23T09:41:33.067Z,167.50
2019-03-23T09:44:09.118Z,160.10
2019-03-23T09:46:44.888Z,172.72
2019-03-23T09:49:22.077Z,170.50
2019-03-23T09:51:57.978Z,172.15
2019-03-23T09:54:34.286Z,168.37
2019-03-23T09:57:10.428Z,168.95
2019-03-23T09:59:46.162Z,168.72
2019-03-23T10:02:21.939Z,176.82
2019-03-23T10:04:57.800Z,205.20
2019-03-23T10:07:34.724Z,198.13
2019-03-23T10:10:21.031Z,183.00
2019-03-23T10:12:48.310Z,173.43
2019-03-23T10:15:24.318Z,185.35
2019-03-23T10:18:01.685Z,187.97
2019-03-23T10:20:37.548Z,193.07
2019-03-23T10:23:13.323Z,200.00
2019-03-23T10:25:49.158Z,196.02
2019-03-23T10:28:24.942Z,186.57
2019-03-23T10:31:00.724Z,177.78
2019-03-23T10:33:36.716Z,184.30
2019-03-23T10:36:13.120Z,180.93
2019-03-23T10:38:48.935Z,193.10
2019-03-23T10:41:24.713Z,188.55
2019-03-23T10:44:00.776Z,183.22
2019-03-23T10:46:36.568Z,193.05
2019-03-23T10:49:12.920Z,182.12
2019-03-23T10:51:48.689Z,177.22
2019-03-23T10:54:24.487Z,181.18
2019-03-23T10:57:00.302Z,188.07
2019-03-23T10:59:36.395Z,172.57
2019-03-23T11:02:12.157Z,175.93
2019-03-23T11:04:47.978Z,176.18
2019-03-23T11:07:24.141Z,175.18
2019-03-23T11:09:59.937Z,168.78
2019-03-23T11:12:37.145Z,165.35
2019-03-23T11:15:13.108Z,170.07
2019-03-23T11:17:48.923Z,166.77
2019-03-23T11:20:29.075Z,165.22
2019-03-23T11:23:04.871Z,162.45
2019-03-23T11:25:40.644Z,161.95
2019-03-23T11:28:16.424Z,174.53
2019-03-23T11:30:52.325Z,223.75
2019-03-23T11:33:28.149Z,171.20
2019-03-23T11:36:04.000Z,166.60
2019-03-23T11:38:39.851Z,155.97
2019-03-23T11:41:15.650Z,164.40
2019-03-23T11:43:51.456Z,173.30
2019-03-23T11:46:27.433Z,154.53
2019-03-23T11:49:03.265Z,157.95
2019-03-23T11:51:39.458Z,141.82
2019-03-23T11:54:15.318Z,186.12
2019-03-23T11:56:51.628Z,172.53
2019-03-23T11:59:28.072Z,152.45
2019-03-23T12:02:04.136Z,145.95
2019-03-23T12:04:39.969Z,145.35
2019-03-23T12:07:15.712Z,144.20
2019-03-23T12:09:51.478Z,132.40
2019-03-23T12:12:27.231Z,138.18
2019-03-23T12:15:03.034Z,136.68
2019-03-23T12:17:38.794Z,128.32
2019-03-23T12:20:14.750Z,128.63
2019-03-23T12:22:50.531Z,130.87
2019-03-23T12:25:26.329Z,137.28
2019-03-23T12:28:02.114Z,135.88
2019-03-23T12:30:37.886Z,118.60
2019-03-23T12:33:13.644Z,123.25
2019-03-23T12:35:49.446Z,115.95
2019-03-23T12:38:25.312Z,117.30
2019-03-23T12:41:10.165Z,105.30
2019-03-23T12:43:38.601Z,106.65
2019-03-23T12:46:14.364Z,94.52
2019-03-23T12:48:50.186Z,93.35
2019-03-23T12:51:25.969Z,89.97
2019-03-23T12:54:01.771Z,95.03
2019-03-23T12:56:37.786Z,89.75
2019-03-23T12:59:13.918Z,74.67
2019-03-23T13:01:49.704Z,68.37
2019-03-23T13:04:25.546Z,126.10
2019-03-23T13:07:01.294Z,69.10
2019-03-23T13:09:37.035Z,73.62
2019-03-23T13:12:12.816Z,64.07
2019-03-23T13:14:48.565Z,63.17
2019-03-23T13:17:24.378Z,61.98
2019-03-23T13:20:00.355Z,64.45
2019-03-23T13:22:36.242Z,68.67
2019-03-23T13:25:12.138Z,63.60
2019-03-23T13:27:48.999Z,59.15
2019-03-23T13:30:24.880Z,65.15
2019-03-23T13:33:00.740Z,66.10
2019-03-23T13:35:36.852Z,61.45
2019-03-23T13:38:13.161Z,66.65
2019-03-23T13:40:49.154Z,66.53
2019-03-23T13:43:24.944Z,62.93
2019-03-23T13:46:01.051Z,62.25
2019-03-23T13:48:37.239Z,59.13
2019-03-23T13:51:13.046Z,60.78
2019-03-23T13:53:48.860Z,62.85
2019-03-23T13:56:24.648Z,59.70
2019-03-23T13:59:02.255Z,68.22
2019-03-23T14:01:38.026Z,66.33
2019-03-23T14:04:13.797Z,63.75
2019-03-23T14:06:49.632Z,63.13
2019-03-23T14:09:25.440Z,65.80
2019-03-23T14:12:01.343Z,66.12
2019-03-23T14:14:37.144Z,63.40
2019-03-23T14:17:12.922Z,65.90
2019-03-23T14:19:48.822Z,65.65
2019-03-23T14:22:24.572Z,66.12
2019-03-23T14:25:00.389Z,65.20
2019-03-23T14:27:36.120Z,69.65
2019-03-23T14:30:11.972Z,69.53
2019-03-23T14:32:47.829Z,65.50
2019-03-23T14:35:23.676Z,65.95
2019-03-23T14:37:59.473Z,74.10
2019-03-23T14:40:35.293Z,63.90
2019-03-23T14:43:11.143Z,61.42
2019-03-23T14:45:46.985Z,67.03
2019-03-23T14:48:23.854Z,68.47
2019-03-23T14:50:59.649Z,67.30
2019-03-23T14:53:35.520Z,65.80
2019-03-23T14:56:11.443Z,70.90
2019-03-23T14:58:47.396Z,66.02
2019-03-23T15:01:23.242Z,63.70
2019-03-23T15:03:59.046Z,65.72
2019-03-23T15:06:34.850Z,65.78
2019-03-23T15:09:10.705Z,61.42
2019-03-23T15:11:46.674Z,55.63
2019-03-23T15:14:22.831Z,59.20
2019-03-23T15:16:59.695Z,54.58
2019-03-23T15:19:35.559Z,59.65
2019-03-23T15:22:11.437Z,54.05
2019-03-23T15:24:47.186Z,53.38
2019-03-23T15:27:22.995Z,57.73
2019-03-23T15:29:58.767Z,60.25
2019-03-23T15:32:34.637Z,54.50
2019-03-23T15:35:10.468Z,59.10
2019-03-23T15:37:46.327Z,58.08
2019-03-23T15:40:25.203Z,55.07
2019-03-23T15:43:09.147Z,55.45
2019-03-23T15:45:52.078Z,57.67
2019-03-23T15:48:31.288Z,55.63
2019-03-23T15:51:07.810Z,52.05
2019-03-23T15:53:47.474Z,55.55
2019-03-23T15:56:24.546Z,54.15
2019-03-23T15:59:00.508Z,55.60
2019-03-23T16:01:36.417Z,56.53
2019-03-23T16:04:15.157Z,58.15
2019-03-23T16:07:15.583Z,78.42
2019-03-23T16:09:55.046Z,59.35
2019-03-23T16:12:35.244Z,59.65
2019-03-23T16:15:11.678Z,62.13
2019-03-23T16:17:47.495Z,61.13
2019-03-23T16:20:25.501Z,61.33
2019-03-23T16:23:01.386Z,436.55
2019-03-23T16:25:37.172Z,919.90
2019-03-23T16:28:13.056Z,1398.13
2019-03-23T16:30:49.076Z,1798.28
2019-03-23T16:33:24.877Z,1129.70
2019-03-23T16:36:00.671Z,1133.28
2019-03-23T16:38:36.470Z,1064.30
2019-03-23T16:41:13.749Z,756.58
2019-03-23T16:43:49.624Z,581.17
2019-03-23T16:46:25.420Z,838.55
2019-03-23T16:49:01.455Z,1162.40
2019-03-23T16:51:37.319Z,1281.43
2019-03-23T16:54:13.170Z,1038.63
2019-03-23T16:56:50.045Z,759.35
2019-03-23T16:59:25.893Z,371.85
2019-03-23T17:02:02.164Z,170.25
2019-03-23T17:04:38.038Z,283.82
2019-03-23T17:07:14.232Z,285.40
2019-03-23T17:09:50.130Z,197.78
2019-03-23T17:12:25.988Z,135.63
2019-03-23T17:15:01.952Z,163.95
2019-03-23T17:17:38.208Z,158.95
2019-03-23T17:20:14.261Z,123.17
2019-03-23T17:22:50.123Z,104.38
2019-03-23T17:25:25.964Z,99.25
2019-03-23T17:28:01.820Z,114.95
2019-03-23T17:30:38.110Z,103.05
2019-03-23T17:33:15.699Z,99.65
2019-03-23T17:35:52.466Z,157.45
2019-03-23T17:38:28.517Z,135.50
2019-03-23T17:41:04.580Z,221.68
2019-03-23T17:43:40.911Z,185.03
2019-03-23T17:46:17.006Z,184.28
2019-03-23T17:48:53.076Z,141.90
2019-03-23T17:51:29.320Z,124.20
2019-03-23T17:54:05.524Z,145.65
2019-03-23T17:56:41.326Z,131.95
2019-03-23T17:59:17.202Z,172.43
2019-03-23T18:01:53.203Z,165.03
2019-03-23T18:04:29.835Z,170.62
2019-03-23T18:07:05.676Z,165.95
2019-03-23T18:09:41.537Z,159.97
2019-03-23T18:12:17.391Z,166.90
2019-03-23T18:14:53.229Z,149.82
2019-03-23T18:17:30.784Z,151.87
2019-03-23T18:20:07.251Z,166.00
2019-03-23T18:22:43.049Z,172.02
2019-03-23T18:25:18.912Z,163.52
2019-03-23T18:27:54.756Z,168.68
2019-03-23T18:30:36.665Z,170.55
2019-03-23T18:35:47.344Z,332.27
2019-03-23T18:38:23.205Z,442.10
2019-03-23T18:40:59.041Z,408.20
2019-03-23T18:43:34.904Z,263.85
2019-03-23T18:46:10.861Z,269.62
2019-03-23T18:48:46.812Z,289.75
2019-03-23T18:51:22.551Z,301.37
2019-03-23T18:53:58.416Z,278.42
2019-03-23T18:56:34.270Z,229.85
2019-03-23T18:59:11.188Z,199.47
2019-03-23T19:01:47.014Z,214.00
2019-03-23T19:04:23.073Z,213.45
2019-03-23T19:06:59.143Z,254.47
2019-03-23T19:09:35.140Z,248.00
2019-03-23T19:12:12.303Z,214.80
2019-03-23T19:14:48.097Z,211.68
2019-03-23T19:17:24.014Z,241.40
2019-03-23T19:19:59.871Z,250.53
2019-03-23T19:22:35.700Z,225.90
2019-03-23T19:25:17.226Z,229.18
2019-03-23T19:27:49.425Z,211.03
2019-03-23T19:30:25.391Z,205.12
2019-03-23T19:33:01.770Z,184.97
2019-03-23T19:35:37.552Z,176.85
2019-03-23T19:38:13.365Z,181.28
2019-03-23T19:40:49.163Z,179.00
2019-03-23T19:43:24.991Z,221.70
2019-03-23T19:46:01.308Z,181.78
2019-03-23T19:48:37.119Z,216.35
2019-03-23T19:51:13.171Z,217.93
2019-03-23T19:53:48.993Z,186.00
2019-03-23T19:56:24.781Z,185.05
2019-03-23T19:59:00.567Z,200.40
2019-03-23T20:01:36.399Z,251.47
2019-03-23T20:04:12.182Z,203.42
2019-03-23T20:06:48.263Z,167.03
2019-03-23T20:09:24.053Z,143.80
2019-03-23T20:11:59.872Z,149.20
2019-03-23T20:14:36.030Z,122.80
2019-03-23T20:17:11.840Z,125.55
2019-03-23T20:19:47.648Z,118.50
2019-03-23T20:22:23.765Z,117.10
2019-03-23T20:25:00.691Z,111.22
2019-03-23T20:27:36.636Z,110.35
2019-03-23T20:30:13.643Z,110.45
2019-03-23T20:32:49.673Z,120.42
2019-03-23T20:35:25.427Z,139.95
2019-03-23T20:38:01.221Z,170.43
2019-03-23T20:40:38.030Z,200.87
2019-03-23T20:43:14.150Z,182.53
2019-03-23T20:45:49.963Z,155.95
2019-03-23T20:48:25.831Z,134.72
2019-03-23T20:51:01.788Z,128.42
2019-03-23T20:54:02.004Z,117.13
2019-03-23T20:57:07.861Z,129.50
2019-03-23T20:59:43.914Z,136.90
2019-03-23T21:02:19.793Z,132.78
2019-03-23T21:04:55.736Z,135.15
2019-03-23T21:07:31.694Z,129.85
2019-03-23T21:10:07.670Z,125.38
2019-03-23T21:12:43.489Z,125.70
2019-03-23T21:15:19.357Z,128.45
2019-03-23T21:17:58.785Z,120.50
2019-03-23T21:20:34.765Z,118.65
2019-03-23T21:23:10.854Z,110.78
2019-03-23T21:25:46.634Z,107.22
2019-03-23T21:28:22.441Z,109.45
2019-03-23T21:30:59.790Z,105.15
2019-03-23T21:33:38.874Z,104.83
2019-03-23T21:36:13.166Z,120.47
2019-03-23T21:38:49.428Z,132.05
2019-03-23T21:41:25.192Z,114.95
2019-03-23T21:44:01.124Z,142.87
2019-03-23T21:46:37.472Z,147.07
2019-03-23T21:49:13.289Z,117.00
2019-03-23T21:51:49.096Z,125.18
2019-03-23T21:54:24.852Z,112.05
2019-03-23T21:57:00.770Z,115.57
2019-03-23T21:59:36.574Z,113.25
2019-03-23T22:02:12.448Z,112.68
2019-03-23T22:04:48.315Z,117.30
2019-03-23T22:07:24.222Z,108.92
2019-03-23T22:10:00.010Z,107.00
2019-03-23T22:12:35.908Z,113.28
2019-03-23T22:15:12.188Z,114.15
2019-03-23T22:17:48.032Z,102.78
2019-03-23T22:20:23.887Z,112.75
2019-03-23T22:22:59.953Z,105.30
2019-03-23T22:25:36.522Z,109.85
2019-03-23T22:28:12.536Z,107.75
2019-03-23T22:30:48.437Z,107.25
2019-03-23T22:33:24.606Z,116.57
2019-03-23T22:36:00.457Z,124.00
2019-03-23T22:38:36.306Z,124.12
2019-03-23T22:41:12.161Z,122.10
2019-03-23T22:43:48.007Z,116.67
2019-03-23T22:46:25.292Z,119.97
2019-03-23T22:49:01.467Z,119.05
2019-03-23T22:51:37.518Z,125.18
2019-03-23T22:54:13.371Z,132.25
2019-03-23T22:56:49.229Z,124.20
2019-03-23T22:59:26.206Z,139.57
2019-03-23T23:02:02.060Z,134.10
2019-03-23T23:04:37.921Z,123.75
2019-03-23T23:07:14.793Z,143.22
2019-03-23T23:09:50.642Z,134.25
2019-03-23T23:12:26.495Z,132.20
2019-03-23T23:15:04.883Z,133.90
2019-03-23T23:17:54.690Z,128.02
2019-03-23T23:20:32.452Z,133.78
2019-03-23T23:23:08.919Z,126.85
2019-03-23T23:25:44.811Z,126.47
2019-03-23T23:28:20.777Z,132.63
2019-03-23T23:30:57.138Z,130.45
2019-03-23T23:33:33.396Z,139.92
2019-03-23T23:36:09.976Z,144.40
2019-03-23T23:38:45.820Z,137.25
2019-03-23T23:41:21.791Z,135.70
2019-03-23T23:43:57.732Z,131.15
2019-03-23T23:46:33.507Z,133.30
2019-03-23T23:49:10.030Z,133.80
2019-03-23T23:51:50.063Z,134.70
2019-03-23T23:54:23.592Z,133.82
2019-03-23T23:56:59.734Z,134.35
2019-03-23T23:59:35.637Z,134.75
